createdAt,value
2018-05-12T00:00:48.099Z,84.60
2018-05-12T00:03:15.626Z,84.30
2018-05-12T00:05:43.997Z,84.60
2018-05-12T00:08:12.301Z,85.00
2018-05-12T00:10:39.899Z,84.90
2018-05-12T00:13:07.449Z,85.00
2018-05-12T00:15:34.975Z,84.70
2018-05-12T00:18:02.557Z,84.80
2018-05-12T00:20:30.136Z,84.90
2018-05-12T00:22:57.681Z,84.60
2018-05-12T00:25:25.282Z,85.10
2018-05-12T00:27:53.545Z,85.10
2018-05-12T00:30:21.112Z,85.30
2018-05-12T00:32:48.729Z,85.80
2018-05-12T00:35:16.315Z,86.00
2018-05-12T00:37:44.676Z,86.00
2018-05-12T00:40:12.284Z,86.00
2018-05-12T00:42:39.832Z,86.00
2018-05-12T00:45:07.411Z,86.00
2018-05-12T00:47:35.748Z,85.70
2018-05-12T00:50:03.349Z,85.70
2018-05-12T00:52:31.725Z,86.10
2018-05-12T00:54:59.301Z,86.00
2018-05-12T00:57:26.924Z,86.50
2018-05-12T00:59:54.469Z,86.50
2018-05-12T01:02:21.996Z,86.30
2018-05-12T01:04:49.577Z,86.70
2018-05-12T01:07:17.093Z,86.70
2018-05-12T01:09:45.785Z,86.00
2018-05-12T01:12:14.142Z,85.90
2018-05-12T01:14:41.731Z,85.90
2018-05-12T01:17:09.270Z,86.20
2018-05-12T01:19:37.730Z,86.40
2018-05-12T01:22:05.361Z,86.30
2018-05-12T01:24:32.906Z,86.50
2018-05-12T01:27:00.473Z,87.10
2018-05-12T01:29:28.030Z,87.40
2018-05-12T01:31:55.543Z,87.50
2018-05-12T01:34:23.078Z,87.50
2018-05-12T01:36:50.630Z,88.00
2018-05-12T01:39:18.178Z,88.60
2018-05-12T01:41:45.729Z,89.10
2018-05-12T01:44:13.265Z,88.80
2018-05-12T01:46:42.217Z,88.30
2018-05-12T01:49:09.750Z,88.10
2018-05-12T01:51:37.292Z,88.00
2018-05-12T01:54:04.852Z,87.70
2018-05-12T01:56:32.422Z,87.50
2018-05-12T01:59:00.004Z,87.60
2018-05-12T02:01:27.654Z,88.20
2018-05-12T02:03:55.245Z,88.40
2018-05-12T02:06:22.820Z,88.50
2018-05-12T02:08:50.369Z,88.60
2018-05-12T02:11:18.742Z,89.10
2018-05-12T02:13:46.277Z,89.10
2018-05-12T02:16:13.818Z,87.90
2018-05-12T02:18:41.386Z,87.90
2018-05-12T02:21:08.966Z,87.60
2018-05-12T02:23:36.516Z,88.10
2018-05-12T02:26:04.193Z,88.40
2018-05-12T02:28:31.757Z,88.80
2018-05-12T02:30:59.307Z,88.50
2018-05-12T02:33:27.692Z,87.90
2018-05-12T02:35:55.222Z,87.80
2018-05-12T02:38:22.773Z,89.00
2018-05-12T02:40:50.305Z,89.50
2018-05-12T02:43:17.836Z,89.40
2018-05-12T02:45:45.387Z,89.20
2018-05-12T02:48:12.941Z,89.10
2018-05-12T02:50:40.545Z,89.20
2018-05-12T02:53:08.090Z,89.00
2018-05-12T02:55:36.423Z,88.40
2018-05-12T02:58:03.958Z,88.40
2018-05-12T03:00:32.315Z,88.60
2018-05-12T03:02:59.850Z,88.60
2018-05-12T03:05:27.704Z,88.30
2018-05-12T03:07:56.051Z,88.90
2018-05-12T03:10:23.640Z,88.90
2018-05-12T03:12:51.176Z,89.90
2018-05-12T03:15:18.767Z,90.10
2018-05-12T03:17:46.298Z,89.70
2018-05-12T03:20:13.853Z,89.50
2018-05-12T03:22:41.447Z,89.00
2018-05-12T03:25:09.042Z,88.90
2018-05-12T03:27:37.430Z,88.80
2018-05-12T03:30:05.715Z,88.70
2018-05-12T03:32:33.287Z,88.60
2018-05-12T03:35:00.834Z,88.90
2018-05-12T03:37:28.377Z,89.50
2018-05-12T03:39:56.659Z,90.30
2018-05-12T03:42:24.974Z,90.20
2018-05-12T03:44:52.495Z,90.20
2018-05-12T03:47:20.825Z,89.70
2018-05-12T03:49:48.371Z,89.70
2018-05-12T03:52:15.948Z,89.40
2018-05-12T03:54:43.503Z,90.00
2018-05-12T03:57:11.062Z,90.20
2018-05-12T03:59:38.658Z,90.20
2018-05-12T04:02:06.259Z,90.00
2018-05-12T04:04:45.669Z,89.70
2018-05-12T04:07:24.854Z,90.00
2018-05-12T04:10:04.290Z,90.00
2018-05-12T04:12:39.747Z,90.00
2018-05-12T04:15:07.394Z,90.00
2018-05-12T04:17:34.947Z,89.90
2018-05-12T04:20:02.568Z,90.10
2018-05-12T04:22:30.132Z,90.10
2018-05-12T04:24:57.679Z,89.90
2018-05-12T04:27:26.247Z,89.80
2018-05-12T04:29:54.668Z,89.90
2018-05-12T04:32:22.285Z,89.90
2018-05-12T04:34:49.925Z,90.10
2018-05-12T04:37:17.473Z,90.20
2018-05-12T04:39:45.056Z,90.20
2018-05-12T04:42:12.578Z,90.20
2018-05-12T04:44:40.172Z,90.20
2018-05-12T04:47:07.721Z,90.00
2018-05-12T04:49:35.254Z,89.70
2018-05-12T04:52:02.802Z,89.10
2018-05-12T04:54:30.350Z,88.80
2018-05-12T04:56:58.773Z,87.90
2018-05-12T04:59:26.313Z,87.90
2018-05-12T05:01:53.876Z,87.80
2018-05-12T05:04:21.431Z,87.80
2018-05-12T05:06:48.992Z,87.40
2018-05-12T05:09:16.525Z,87.30
2018-05-12T05:11:44.830Z,87.00
2018-05-12T05:14:12.390Z,87.00
2018-05-12T05:16:39.939Z,86.60
2018-05-12T05:19:08.534Z,86.60
2018-05-12T05:21:36.081Z,87.10
2018-05-12T05:24:03.623Z,86.40
2018-05-12T05:26:31.986Z,85.40
2018-05-12T05:28:59.580Z,85.30
2018-05-12T05:31:27.101Z,85.20
2018-05-12T05:33:54.697Z,85.00
2018-05-12T05:36:22.269Z,85.00
2018-05-12T05:38:49.927Z,84.50
2018-05-12T05:41:17.938Z,83.90
2018-05-12T05:43:45.511Z,84.10
2018-05-12T05:46:13.044Z,84.70
2018-05-12T05:48:40.590Z,84.60
2018-05-12T05:51:08.175Z,84.90
2018-05-12T05:53:35.698Z,85.00
2018-05-12T05:56:03.261Z,85.40
2018-05-12T05:58:30.904Z,86.00
2018-05-12T06:00:58.477Z,85.20
2018-05-12T06:03:27.317Z,85.90
2018-05-12T06:05:54.866Z,86.50
2018-05-12T06:08:22.378Z,86.10
2018-05-12T06:10:49.917Z,86.30
2018-05-12T06:13:18.227Z,85.50
2018-05-12T06:15:45.790Z,85.40
2018-05-12T06:18:13.406Z,87.30
2018-05-12T06:20:41.790Z,86.90
2018-05-12T06:23:10.183Z,85.00
2018-05-12T06:25:37.781Z,85.00
2018-05-12T06:28:05.330Z,84.50
2018-05-12T06:30:32.882Z,83.50
2018-05-12T06:33:00.433Z,82.00
2018-05-12T06:35:27.955Z,84.30
2018-05-12T06:37:55.543Z,82.70
2018-05-12T06:40:23.841Z,82.80
2018-05-12T06:42:51.381Z,82.80
2018-05-12T06:45:18.904Z,81.80
2018-05-12T06:47:46.438Z,82.50
2018-05-12T06:50:13.966Z,79.60
2018-05-12T06:52:42.243Z,80.70
2018-05-12T06:55:09.798Z,80.60
2018-05-12T06:57:37.333Z,81.20
2018-05-12T07:00:04.917Z,80.40
2018-05-12T07:02:32.463Z,80.30
2018-05-12T07:05:00.807Z,76.50
2018-05-12T07:07:28.404Z,76.50
2018-05-12T07:09:57.295Z,75.70
2018-05-12T07:12:25.667Z,76.80
2018-05-12T07:14:53.151Z,76.80
2018-05-12T07:17:20.700Z,76.20
2018-05-12T07:19:48.476Z,76.00
2018-05-12T07:22:16.052Z,74.90
2018-05-12T07:24:43.606Z,75.30
2018-05-12T07:27:11.175Z,73.60
2018-05-12T07:29:38.821Z,72.80
2018-05-12T07:32:06.363Z,72.60
2018-05-12T07:34:33.890Z,74.60
2018-05-12T07:37:01.503Z,71.70
2018-05-12T07:39:29.063Z,71.50
2018-05-12T07:41:56.628Z,70.40
2018-05-12T07:44:25.001Z,69.20
2018-05-12T07:46:52.564Z,69.20
2018-05-12T07:49:20.100Z,70.90
2018-05-12T07:51:47.687Z,70.70
2018-05-12T07:54:15.322Z,71.40
2018-05-12T07:56:42.930Z,70.60
2018-05-12T07:59:11.417Z,71.40
2018-05-12T08:01:39.065Z,71.40
2018-05-12T08:04:06.613Z,68.80
2018-05-12T08:06:34.174Z,67.40
2018-05-12T08:09:01.761Z,67.30
2018-05-12T08:11:31.081Z,68.50
2018-05-12T08:13:58.708Z,68.50
2018-05-12T08:16:26.266Z,67.30
2018-05-12T08:18:53.801Z,66.90
2018-05-12T08:21:21.318Z,67.20
2018-05-12T08:23:48.854Z,68.30
2018-05-12T08:26:17.186Z,64.60
2018-05-12T08:28:44.769Z,63.80
2018-05-12T08:31:12.290Z,65.80
2018-05-12T08:33:40.614Z,64.90
2018-05-12T08:36:08.163Z,64.80
2018-05-12T08:38:35.693Z,65.10
2018-05-12T08:41:04.013Z,64.60
2018-05-12T08:43:31.526Z,64.60
2018-05-12T08:45:59.857Z,60.80
2018-05-12T08:48:27.379Z,60.80
2018-05-12T08:50:54.935Z,61.50
2018-05-12T08:53:22.732Z,62.50
2018-05-12T08:55:50.289Z,63.80
2018-05-12T08:58:18.090Z,64.80
2018-05-12T09:00:45.946Z,63.10
2018-05-12T09:03:13.618Z,63.80
2018-05-12T09:05:41.997Z,62.30
2018-05-12T09:08:09.518Z,62.10
2018-05-12T09:10:37.104Z,61.10
2018-05-12T09:13:04.628Z,62.70
2018-05-12T09:15:32.585Z,60.10
2018-05-12T09:18:00.129Z,60.30
2018-05-12T09:20:28.507Z,59.00
2018-05-12T09:22:56.809Z,59.20
2018-05-12T09:25:24.368Z,59.30
2018-05-12T09:27:52.621Z,59.40
2018-05-12T09:30:20.938Z,57.90
2018-05-12T09:32:48.470Z,57.80
2018-05-12T09:35:16.237Z,58.90
2018-05-12T09:37:43.767Z,59.10
2018-05-12T09:40:12.098Z,58.00
2018-05-12T09:42:39.770Z,58.00
2018-05-12T09:45:07.240Z,58.80
2018-05-12T09:47:34.806Z,58.10
2018-05-12T09:50:02.406Z,57.60
2018-05-12T09:52:29.970Z,57.10
2018-05-12T09:54:57.494Z,55.40
2018-05-12T09:57:25.049Z,56.60
2018-05-12T09:59:52.581Z,54.80
2018-05-12T10:02:20.149Z,54.70
2018-05-12T10:04:47.684Z,55.50
2018-05-12T10:07:15.222Z,54.70
2018-05-12T10:09:42.804Z,54.70
2018-05-12T10:12:10.332Z,54.60
2018-05-12T10:14:38.649Z,54.70
2018-05-12T10:17:06.198Z,54.70
2018-05-12T10:19:33.767Z,52.80
2018-05-12T10:22:01.295Z,52.90
2018-05-12T10:24:29.663Z,53.70
2018-05-12T10:26:57.977Z,52.80
2018-05-12T10:29:25.532Z,52.70
2018-05-12T10:31:54.475Z,53.10
2018-05-12T10:34:23.289Z,50.80
2018-05-12T10:36:51.010Z,50.90
2018-05-12T10:39:18.563Z,51.70
2018-05-12T10:41:46.094Z,49.70
2018-05-12T10:44:13.725Z,46.60
2018-05-12T10:46:42.029Z,46.20
2018-05-12T10:49:09.637Z,46.20
2018-05-12T10:51:37.239Z,46.60
2018-05-12T10:54:04.764Z,47.60
2018-05-12T10:56:32.690Z,49.60
2018-05-12T10:59:00.205Z,48.10
2018-05-12T11:01:27.977Z,49.90
2018-05-12T11:03:55.549Z,49.90
2018-05-12T11:06:23.091Z,49.50
2018-05-12T11:08:51.372Z,49.10
2018-05-12T11:11:19.697Z,48.60
2018-05-12T11:13:48.045Z,49.40
2018-05-12T11:16:15.731Z,49.40
2018-05-12T11:18:43.278Z,46.60
2018-05-12T11:21:10.863Z,44.60
2018-05-12T11:23:38.445Z,46.40
2018-05-12T11:26:06.166Z,45.00
2018-05-12T11:28:33.754Z,45.50
2018-05-12T11:31:01.526Z,42.40
2018-05-12T11:33:29.098Z,44.00
2018-05-12T11:35:56.968Z,44.00
2018-05-12T11:38:27.205Z,41.70
2018-05-12T11:40:55.506Z,45.00
2018-05-12T11:43:23.047Z,45.00
2018-05-12T11:45:51.354Z,42.30
2018-05-12T11:48:18.908Z,42.30
2018-05-12T11:50:46.530Z,42.60
2018-05-12T11:53:14.115Z,41.20
2018-05-12T11:55:42.430Z,40.90
2018-05-12T11:58:09.987Z,40.90
2018-05-12T12:00:37.632Z,43.20
2018-05-12T12:03:06.305Z,42.30
2018-05-12T12:05:34.097Z,42.20
2018-05-12T12:08:01.673Z,40.20
2018-05-12T12:10:29.302Z,42.40
2018-05-12T12:12:56.824Z,42.70
2018-05-12T12:15:25.107Z,43.10
2018-05-12T12:17:52.682Z,42.70
2018-05-12T12:20:20.222Z,41.90
2018-05-12T12:22:48.855Z,42.30
2018-05-12T12:25:16.383Z,42.30
2018-05-12T12:27:43.931Z,41.70
2018-05-12T12:30:12.259Z,43.00
2018-05-12T12:32:39.810Z,43.00
2018-05-12T12:35:07.314Z,43.00
2018-05-12T12:37:35.649Z,44.50
2018-05-12T12:40:03.778Z,42.90
2018-05-12T12:42:31.846Z,41.10
2018-05-12T12:45:00.207Z,38.80
2018-05-12T12:47:27.708Z,38.60
2018-05-12T12:49:56.018Z,38.10
2018-05-12T12:52:23.586Z,37.90
2018-05-12T12:54:51.146Z,38.20
2018-05-12T12:57:18.660Z,37.30
2018-05-12T12:59:46.206Z,37.80
2018-05-12T13:02:15.110Z,39.70
2018-05-12T13:04:42.676Z,39.60
2018-05-12T13:07:10.193Z,40.20
2018-05-12T13:09:37.744Z,40.70
2018-05-12T13:12:05.281Z,41.20
2018-05-12T13:14:32.871Z,41.90
2018-05-12T13:17:00.399Z,40.10
2018-05-12T13:19:27.942Z,40.90
2018-05-12T13:21:55.485Z,40.30
2018-05-12T13:24:23.086Z,41.20
2018-05-12T13:26:50.632Z,41.80
2018-05-12T13:29:18.998Z,42.70
2018-05-12T13:31:47.289Z,44.80
2018-05-12T13:34:14.806Z,44.80
2018-05-12T13:36:42.370Z,44.50
2018-05-12T13:39:10.672Z,42.50
2018-05-12T13:41:38.213Z,42.40
2018-05-12T13:44:06.218Z,41.50
2018-05-12T13:46:34.534Z,43.20
2018-05-12T13:49:02.066Z,43.40
2018-05-12T13:51:29.634Z,43.30
2018-05-12T13:53:57.205Z,42.40
2018-05-12T13:56:25.561Z,43.00
2018-05-12T13:58:53.103Z,43.70
2018-05-12T14:01:20.725Z,44.20
2018-05-12T14:03:49.838Z,42.30
2018-05-12T14:06:17.391Z,42.30
2018-05-12T14:08:45.724Z,40.60
2018-05-12T14:11:13.273Z,40.50
2018-05-12T14:13:40.826Z,39.90
2018-05-12T14:16:08.428Z,39.40
2018-05-12T14:18:35.901Z,37.30
2018-05-12T14:21:03.433Z,36.00
2018-05-12T14:23:30.993Z,36.80
2018-05-12T14:25:58.573Z,36.90
2018-05-12T14:28:26.884Z,38.30
2018-05-12T14:30:55.188Z,38.20
2018-05-12T14:33:22.752Z,38.10
2018-05-12T14:35:50.277Z,37.10
2018-05-12T14:38:18.663Z,37.00
2018-05-12T14:40:46.184Z,35.90
2018-05-12T14:43:14.496Z,32.30
2018-05-12T14:45:42.043Z,32.30
2018-05-12T14:48:10.350Z,33.50
2018-05-12T14:50:38.697Z,33.10
2018-05-12T14:53:06.227Z,33.10
2018-05-12T14:55:33.777Z,35.20
2018-05-12T14:58:01.353Z,35.70
2018-05-12T15:00:29.662Z,34.70
2018-05-12T15:02:58.011Z,35.60
2018-05-12T15:05:25.529Z,35.50
2018-05-12T15:07:53.916Z,33.60
2018-05-12T15:10:22.167Z,32.20
2018-05-12T15:12:49.734Z,32.10
2018-05-12T15:15:17.330Z,33.20
2018-05-12T15:17:44.865Z,31.60
2018-05-12T15:20:12.409Z,34.60
2018-05-12T15:22:40.042Z,32.40
2018-05-12T15:25:08.201Z,32.40
2018-05-12T15:27:35.687Z,33.40
2018-05-12T15:30:03.228Z,30.60
2018-05-12T15:32:32.455Z,32.70
2018-05-12T15:34:59.990Z,32.70
2018-05-12T15:37:27.541Z,37.40
2018-05-12T15:39:55.852Z,37.00
2018-05-12T15:42:24.153Z,35.20
2018-05-12T15:44:52.474Z,36.00
2018-05-12T15:47:20.818Z,38.60
2018-05-12T15:49:48.387Z,38.50
2018-05-12T15:52:15.938Z,40.30
2018-05-12T15:54:43.449Z,40.90
2018-05-12T15:57:11.035Z,41.60
2018-05-12T15:59:38.568Z,41.70
2018-05-12T16:02:06.871Z,42.50
2018-05-12T16:04:34.399Z,43.10
2018-05-12T16:07:01.933Z,41.70
2018-05-12T16:09:30.310Z,44.20
2018-05-12T16:11:58.605Z,43.60
2018-05-12T16:14:26.177Z,43.70
2018-05-12T16:16:53.792Z,43.50
2018-05-12T16:19:21.326Z,40.50
2018-05-12T16:21:48.836Z,39.50
2018-05-12T16:24:17.145Z,40.00
2018-05-12T16:26:44.665Z,39.90
2018-05-12T16:29:12.970Z,43.60
2018-05-12T16:31:40.591Z,43.50
2018-05-12T16:34:08.077Z,42.40
2018-05-12T16:36:36.393Z,44.20
2018-05-12T16:39:03.921Z,44.10
2018-05-12T16:41:31.461Z,43.30
2018-05-12T16:43:59.016Z,45.20
2018-05-12T16:46:27.351Z,44.00
2018-05-12T16:48:54.901Z,43.90
2018-05-12T16:51:22.439Z,44.20
2018-05-12T16:53:49.983Z,45.50
2018-05-12T16:56:17.545Z,44.40
2018-05-12T16:58:45.834Z,45.00
2018-05-12T17:01:13.361Z,45.20
2018-05-12T17:03:40.901Z,45.40
2018-05-12T17:06:09.213Z,46.90
2018-05-12T17:08:37.644Z,46.90
2018-05-12T17:11:05.551Z,46.90
2018-05-12T17:13:33.874Z,46.70
2018-05-12T17:16:01.404Z,46.70
2018-05-12T17:18:29.732Z,48.50
2018-05-12T17:20:57.262Z,48.50
2018-05-12T17:23:24.907Z,49.10
2018-05-12T17:25:52.361Z,49.80
2018-05-12T17:28:19.948Z,49.50
2018-05-12T17:30:47.506Z,50.00
2018-05-12T17:33:15.082Z,51.60
2018-05-12T17:35:43.565Z,51.90
2018-05-12T17:38:11.081Z,51.20
2018-05-12T17:40:39.437Z,53.00
2018-05-12T17:43:06.959Z,52.90
2018-05-12T17:45:34.506Z,53.60
2018-05-12T17:48:02.069Z,54.40
2018-05-12T17:50:29.613Z,55.40
2018-05-12T17:52:57.913Z,57.00
2018-05-12T17:55:25.461Z,56.90
2018-05-12T17:57:53.762Z,57.50
2018-05-12T18:00:22.289Z,57.40
2018-05-12T18:02:50.607Z,57.40
2018-05-12T18:05:18.159Z,57.40
2018-05-12T18:07:45.695Z,57.80
2018-05-12T18:10:13.218Z,57.40
2018-05-12T18:12:40.770Z,57.00
2018-05-12T18:15:08.277Z,57.80
2018-05-12T18:17:35.835Z,58.60
2018-05-12T18:20:04.136Z,60.40
2018-05-12T18:22:31.682Z,60.40
2018-05-12T18:24:59.197Z,61.00
2018-05-12T18:27:27.530Z,61.80
2018-05-12T18:29:55.045Z,61.80
2018-05-12T18:32:23.370Z,62.60
2018-05-12T18:34:50.933Z,62.60
2018-05-12T18:37:18.498Z,62.80
2018-05-12T18:39:46.024Z,63.80
2018-05-12T18:42:13.572Z,64.50
2018-05-12T18:44:41.909Z,65.80
2018-05-12T18:47:09.448Z,65.80
2018-05-12T18:49:36.978Z,65.90
2018-05-12T18:52:04.592Z,66.20
2018-05-12T18:54:32.136Z,66.40
2018-05-12T18:56:59.673Z,67.00
2018-05-12T18:59:27.973Z,67.60
2018-05-12T19:01:55.486Z,67.60
2018-05-12T19:04:23.805Z,67.90
2018-05-12T19:06:51.347Z,67.80
2018-05-12T19:09:18.926Z,68.40
2018-05-12T19:11:46.438Z,68.20
2018-05-12T19:14:14.780Z,68.30
2018-05-12T19:16:42.569Z,68.30
2018-05-12T19:19:10.885Z,67.10
2018-05-12T19:21:38.410Z,67.00
2018-05-12T19:24:05.925Z,67.20
2018-05-12T19:26:34.281Z,67.20
2018-05-12T19:29:01.884Z,67.20
2018-05-12T19:31:29.436Z,67.70
2018-05-12T19:33:56.961Z,68.10
2018-05-12T19:36:24.507Z,68.40
2018-05-12T19:38:52.285Z,69.00
2018-05-12T19:41:19.835Z,69.30
2018-05-12T19:43:47.411Z,69.70
2018-05-12T19:46:15.670Z,69.60
2018-05-12T19:48:43.981Z,70.30
2018-05-12T19:51:11.564Z,70.30
2018-05-12T19:53:39.119Z,70.60
2018-05-12T19:56:06.659Z,70.30
2018-05-12T19:58:34.196Z,70.00
2018-05-12T20:01:01.820Z,70.40
2018-05-12T20:03:30.126Z,71.00
2018-05-12T20:05:58.407Z,71.30
2018-05-12T20:08:25.942Z,71.20
2018-05-12T20:10:54.250Z,71.70
2018-05-12T20:13:21.796Z,71.60
2018-05-12T20:15:50.094Z,71.10
2018-05-12T20:18:18.373Z,71.10
2018-05-12T20:20:45.885Z,71.00
2018-05-12T20:23:13.887Z,70.90
2018-05-12T20:25:42.251Z,71.30
2018-05-12T20:28:09.827Z,71.30
2018-05-12T20:30:37.366Z,71.30
2018-05-12T20:33:05.651Z,71.40
2018-05-12T20:35:33.205Z,71.40
2018-05-12T20:38:00.727Z,71.60
2018-05-12T20:40:28.552Z,71.90
2018-05-12T20:42:56.074Z,72.40
2018-05-12T20:45:24.410Z,73.50
2018-05-12T20:47:51.925Z,73.50
2018-05-12T20:50:20.225Z,73.50
2018-05-12T20:52:47.753Z,73.50
2018-05-12T20:55:16.062Z,73.60
2018-05-12T21:00:23.325Z,73.30
2018-05-12T21:02:50.881Z,73.60
2018-05-12T21:05:18.458Z,73.60
2018-05-12T21:07:46.770Z,73.60
2018-05-12T21:10:14.279Z,73.60
2018-05-12T21:12:42.598Z,74.20
2018-05-12T21:15:10.147Z,74.20
2018-05-12T21:17:37.725Z,75.20
2018-05-12T21:20:05.433Z,75.30
2018-05-12T21:22:33.733Z,75.00
2018-05-12T21:25:01.284Z,75.00
2018-05-12T21:27:28.841Z,75.10
2018-05-12T21:29:57.131Z,74.80
2018-05-12T21:32:25.469Z,74.30
2018-05-12T21:34:53.121Z,74.30
2018-05-12T21:37:21.501Z,73.80
2018-05-12T21:39:49.035Z,74.60
2018-05-12T21:42:16.580Z,74.30
2018-05-12T21:44:44.094Z,74.60
2018-05-12T21:47:13.162Z,74.50
2018-05-12T21:49:40.674Z,74.40
2018-05-12T21:52:08.265Z,74.20
2018-05-12T21:54:35.834Z,74.70
2018-05-12T21:57:03.357Z,74.50
2018-05-12T21:59:30.911Z,74.90
2018-05-12T22:01:59.229Z,74.50
2018-05-12T22:04:27.441Z,74.50
2018-05-12T22:06:54.954Z,74.90
2018-05-12T22:09:22.485Z,75.20
2018-05-12T22:11:50.754Z,76.00
2018-05-12T22:14:19.064Z,76.20
2018-05-12T22:16:50.296Z,76.20
2018-05-12T22:19:17.837Z,76.70
2018-05-12T22:24:18.118Z,77.30
2018-05-12T22:26:45.741Z,77.30
2018-05-12T22:29:14.046Z,77.50
2018-05-12T22:31:41.553Z,77.50
2018-05-12T22:34:09.086Z,77.40
2018-05-12T22:36:36.595Z,77.90
2018-05-12T22:39:05.126Z,77.70
2018-05-12T22:41:32.663Z,77.70
2018-05-12T22:44:00.185Z,77.50
2018-05-12T22:46:27.741Z,78.10
2018-05-12T22:48:55.255Z,78.00
2018-05-12T22:51:22.790Z,77.90
2018-05-12T22:53:50.378Z,77.20
2018-05-12T22:56:17.938Z,77.50
2018-05-12T22:58:45.453Z,77.70
2018-05-12T23:01:16.086Z,78.00
2018-05-12T23:03:44.364Z,78.10
2018-05-12T23:06:12.654Z,78.60
2018-05-12T23:08:41.063Z,76.90
2018-05-12T23:11:08.630Z,76.80
2018-05-12T23:13:36.141Z,76.70
2018-05-12T23:16:04.431Z,76.20
2018-05-12T23:18:32.040Z,76.20
2018-05-12T23:21:00.262Z,73.80
2018-05-12T23:23:27.803Z,73.70
2018-05-12T23:25:55.321Z,72.20
2018-05-12T23:28:22.874Z,71.80
2018-05-12T23:30:50.411Z,71.70
2018-05-12T23:33:18.486Z,71.50
2018-05-12T23:35:45.997Z,72.00
2018-05-12T23:38:13.533Z,71.70
2018-05-12T23:40:41.832Z,72.40
2018-05-12T23:43:10.872Z,72.50
2018-05-12T23:45:38.399Z,72.50
2018-05-12T23:48:05.995Z,72.20
2018-05-12T23:50:33.499Z,72.50
2018-05-12T23:53:01.008Z,72.30
2018-05-12T23:55:28.553Z,72.20
2018-05-12T23:57:56.907Z,72.10
